Time;durP1;ratioP1;P1;durP2;ratioP2;P2;SDS_P1;SDS_P2;PMS_P1;PMS_P2;Temp;Humidity;BMP_temperature;BMP_pressure;BME280_temperature;BME280_humidity;BME280_pressure;Samples;Min_cycle;Max_cycle;Signal;HPM_P1;HPM_P2
2022/03/15 02:00:21;;;;;;;51.37;30.37;;;;;;;1.94;51.45;101529.50;5631814;22;15156006;-87
2022/03/15 02:52:32;;;;;;;21.47;17.00;;;;;;;-1.61;51.48;101096.84;6328375;22;20010;-84
2022/03/15 03:03:06;;;;;;;22.13;16.00;;;;;;;-0.86;52.26;101247.50;6321145;22;20003;-86
2022/03/15 03:05:33;;;;;;;19.47;14.87;;;;;;;-1.69;52.27;101104.06;6335636;22;20000;-87
2022/03/15 03:24:34;;;;;;;26.30;19.80;;;;;;;-1.32;52.23;101188.94;6305066;22;20082;-86
2022/03/15 03:29:35;;;;;;;27.43;20.03;;;;;;;-1.33;52.07;101123.31;6315385;22;20011;-86
2022/03/15 04:44:36;;;;;;;32.30;25.40;;;;;;;-1.86;52.89;101137.56;6330845;22;20057;-86
2022/03/15 05:12:54;;;;;;;50.93;33.97;;;;;;;-0.94;53.70;101194.28;6316140;22;20003;-83
2022/03/15 05:17:55;;;;;;;50.17;33.83;;;;;;;-0.04;53.47;101360.78;6304553;22;20033;-85
2022/03/15 05:20:21;;;;;;;54.87;34.87;;;;;;;-2.12;53.56;101073.88;6310255;22;20022;-86
2022/03/15 05:22:46;;;;;;;51.17;33.93;;;;;;;-2.11;53.29;101066.06;6310486;22;20015;-86
2022/03/15 07:31:53;;;;;;;20.27;15.03;;;;;;;1.82;49.31;101195.81;6331726;22;20017;-84
2022/03/15 07:36:54;;;;;;;15.27;12.43;;;;;;;2.27;48.61;101209.09;6319654;22;20012;-82
2022/03/15 07:41:55;;;;;;;14.90;11.40;;;;;;;2.55;48.01;101280.47;6335269;22;20014;-86
2022/03/15 08:01:37;;;;;;;18.17;13.17;;;;;;;4.09;47.14;101406.59;6320756;22;20030;-89
2022/03/15 08:04:03;;;;;;;16.90;12.87;;;;;;;2.67;47.04;101169.41;6336404;22;19996;-89
2022/03/15 08:06:30;;;;;;;15.20;11.97;;;;;;;3.53;46.64;101310.63;6334535;22;20034;-87
2022/03/15 08:08:58;;;;;;;20.80;14.37;;;;;;;3.66;46.19;101257.56;6327999;22;20006;-89
2022/03/15 08:11:25;;;;;;;16.73;11.03;;;;;;;4.50;45.75;101387.59;6321713;22;19999;-87
2022/03/15 08:13:53;;;;;;;12.57;9.60;;;;;;;4.99;45.39;101506.63;6288019;22;20506;-88
2022/03/15 08:16:19;;;;;;;13.73;10.20;;;;;;;4.17;45.66;101314.63;6307934;22;19995;-90
2022/03/15 08:18:45;;;;;;;10.13;8.87;;;;;;;3.92;45.44;101283.91;6279004;22;20064;-90
2022/03/15 08:21:10;;;;;;;10.70;9.27;;;;;;;5.29;45.16;101492.59;6279453;22;20722;-89
2022/03/15 08:23:36;;;;;;;13.30;10.03;;;;;;;5.87;45.33;101601.59;6280822;22;19999;-90
2022/03/15 08:26:01;;;;;;;15.33;12.33;;;;;;;5.34;44.96;101482.66;6279019;22;20012;-90
2022/03/15 08:28:27;;;;;;;14.03;10.77;;;;;;;5.95;44.96;101573.16;6277767;22;20003;-91
2022/03/15 08:30:54;;;;;;;11.93;10.70;;;;;;;4.63;45.00;101333.56;6278443;22;20000;-91
2022/03/15 08:33:20;;;;;;;14.03;11.60;;;;;;;5.78;44.62;101511.25;6278059;22;20356;-91
2022/03/15 08:35:46;;;;;;;14.83;11.23;;;;;;;6.19;44.45;101519.09;6305279;22;19995;-92
2022/03/15 08:38:12;;;;;;;18.67;12.90;;;;;;;4.46;44.42;101227.41;6278423;22;20007;-90
2022/03/15 08:40:38;;;;;;;13.97;11.80;;;;;;;6.61;43.79;101551.28;6306839;22;20432;-95
2022/03/15 08:43:04;;;;;;;15.17;11.70;;;;;;;5.11;44.19;101293.78;6308287;22;20027;-92
2022/03/15 08:45:30;;;;;;;19.37;13.13;;;;;;;5.23;43.51;101279.09;6308282;22;20500;-93
2022/03/15 08:47:56;;;;;;;17.87;13.30;;;;;;;5.33;43.43;101295.03;6281028;22;20026;-93
2022/03/15 08:50:22;;;;;;;16.80;13.03;;;;;;;6.67;43.45;101501.84;6279006;22;20063;-94
2022/03/15 08:52:48;;;;;;;17.63;12.80;;;;;;;6.81;43.35;101508.81;6282067;22;20027;-92
2022/03/15 08:55:14;;;;;;;17.20;12.37;;;;;;;6.50;43.02;101451.44;6298565;22;20003;-92
2022/03/15 08:57:40;;;;;;;16.50;11.57;;;;;;;6.70;42.73;101508.69;6296617;22;20044;-92
2022/03/15 09:00:08;;;;;;;16.93;12.43;;;;;;;6.64;42.22;101430.34;6302216;22;20003;-91
2022/03/15 09:02:34;;;;;;;14.30;11.30;;;;;;;6.16;41.83;101356.72;6327083;22;20011;-94
2022/03/15 09:05:00;;;;;;;17.30;13.37;;;;;;;6.84;42.10;101405.34;6295080;22;20010;-93
2022/03/15 09:07:27;;;;;;;19.07;13.37;;;;;;;7.09;41.94;101428.09;6285656;22;20007;-92
2022/03/15 09:09:53;;;;;;;17.50;12.23;;;;;;;7.43;41.46;101450.13;6307736;22;20006;-92
2022/03/15 09:12:18;;;;;;;14.77;12.70;;;;;;;8.07;41.17;101533.06;6279600;22;20070;-91
2022/03/15 09:14:44;;;;;;;14.57;10.57;;;;;;;7.92;41.22;101474.53;6279934;22;20015;-90
2022/03/15 09:17:10;;;;;;;13.32;11.65;;;;;;;7.61;40.79;101398.88;6278892;22;19999;-90
2022/03/15 09:19:36;;;;;;;14.20;11.43;;;;;;;7.73;40.40;101381.34;6277719;22;20360;-91
2022/03/15 09:22:03;;;;;;;12.77;10.53;;;;;;;8.45;40.16;101475.00;6278780;22;20003;-90
2022/03/15 09:24:30;;;;;;;14.60;11.52;;;;;;;8.56;39.57;101461.84;6279079;22;20120;-90
2022/03/15 09:26:55;;;;;;;15.02;10.38;;;;;;;8.93;39.64;101482.72;6278812;22;20000;-89
2022/03/15 09:29:21;;;;;;;10.05;8.90;;;;;;;8.44;39.10;101369.81;6287968;22;20009;-88
2022/03/15 09:31:46;;;;;;;13.45;10.57;;;;;;;8.90;38.96;101444.25;6306597;22;20010;-88
2022/03/15 09:34:12;;;;;;;13.68;10.50;;;;;;;8.56;38.54;101350.44;6309463;22;20066;-90
2022/03/15 09:36:38;;;;;;;12.98;10.48;;;;;;;8.84;38.02;101421.03;6280893;22;19996;-89
2022/03/15 09:39:07;;;;;;;12.65;10.43;;;;;;;9.54;37.72;101478.66;6281502;22;20007;-89
2022/03/15 09:41:38;;;;;;;14.27;9.45;;;;;;;8.72;37.75;101335.09;6281448;22;20006;-89
2022/03/15 09:44:08;;;;;;;8.88;7.30;;;;;;;9.66;37.93;101473.34;6279149;22;20019;-92
2022/03/15 09:46:40;;;;;;;13.15;10.30;;;;;;;9.58;37.73;101434.44;6278979;22;20003;-90
2022/03/15 09:49:06;;;;;;;12.43;10.25;;;;;;;9.99;37.89;101473.25;6278722;22;19999;-91
2022/03/15 09:51:33;;;;;;;18.10;12.00;;;;;;;10.22;37.08;101484.56;6277840;22;20025;-88
2022/03/15 09:54:01;;;;;;;16.40;11.13;;;;;;;10.25;36.40;101439.44;6276478;22;20015;-91
2022/03/15 09:56:26;;;;;;;12.90;10.55;;;;;;;9.88;36.31;101338.75;6278645;22;19999;-91
2022/03/15 09:58:52;;;;;;;13.25;10.75;;;;;;;10.82;36.29;101454.78;6278711;22;20065;-90
2022/03/15 10:01:18;;;;;;;13.70;9.57;;;;;;;10.98;35.95;101453.44;6277539;22;20029;-90
2022/03/15 10:03:47;;;;;;;12.23;9.32;;;;;;;10.90;35.64;101464.69;6278178;22;20155;-90
2022/03/15 10:06:14;;;;;;;13.13;10.65;;;;;;;10.13;35.90;101326.94;6279031;22;20007;-90
2022/03/15 10:08:40;;;;;;;11.10;9.35;;;;;;;10.40;35.13;101353.66;6278098;22;20392;-90
2022/03/15 10:11:05;;;;;;;10.95;9.55;;;;;;;10.44;35.02;101325.19;6277089;22;20004;-90
2022/03/15 10:13:31;;;;;;;13.43;10.23;;;;;;;11.01;34.95;101371.22;6277309;22;20348;-89
2022/03/15 10:16:03;;;;;;;11.50;9.52;;;;;;;11.05;34.65;101323.25;6277762;22;19999;-90
2022/03/15 10:18:29;;;;;;;13.90;11.38;;;;;;;11.67;34.14;101401.38;6278167;22;20000;-89
2022/03/15 10:20:55;;;;;;;11.43;9.35;;;;;;;12.05;33.73;101418.25;6278895;22;19999;-89
2022/03/15 10:23:29;;;;;;;9.20;7.97;;;;;;;11.87;33.13;101372.28;6277764;22;19999;-89
2022/03/15 10:25:56;;;;;;;10.43;9.15;;;;;;;12.02;33.27;101362.94;6306216;22;20003;-88
2022/03/15 10:28:22;;;;;;;13.32;10.45;;;;;;;12.09;33.08;101343.69;6278218;22;20106;-88
2022/03/15 10:30:48;;;;;;;13.48;9.60;;;;;;;12.63;32.59;101395.13;6305409;22;20076;-88
2022/03/15 10:33:17;;;;;;;11.95;9.32;;;;;;;12.84;32.22;101386.09;6277045;22;20003;-89
2022/03/15 10:35:45;;;;;;;15.25;9.88;;;;;;;13.03;32.44;101378.03;6277841;22;19995;-88
2022/03/15 10:38:11;;;;;;;11.23;7.95;;;;;;;12.84;31.70;101325.13;6276195;22;20013;-88
2022/03/15 10:40:41;;;;;;;11.77;8.65;;;;;;;13.01;31.56;101342.88;6278129;22;20006;-88
2022/03/15 10:43:27;;;;;;;9.65;8.60;;;;;;;12.55;31.69;101236.00;6303519;22;20060;-88
2022/03/15 10:45:57;;;;;;;10.57;9.00;;;;;;;12.90;31.31;101247.63;6274041;22;20086;-88
2022/03/15 10:48:25;;;;;;;10.38;9.10;;;;;;;13.71;31.35;101351.03;6275803;22;20433;-88
2022/03/15 10:51:05;;;;;;;14.18;10.15;;;;;;;13.82;31.32;101334.84;6275391;22;20388;-87
2022/03/15 10:53:36;;;;;;;10.98;9.60;;;;;;;13.98;31.38;101337.59;6275456;22;20387;-88
2022/03/15 10:56:22;;;;;;;12.00;9.80;;;;;;;14.16;30.05;101322.47;6275934;22;20609;-87
2022/03/15 10:59:01;;;;;;;14.52;11.18;;;;;;;13.73;31.13;101224.28;6276008;22;20015;-87
2022/03/15 11:01:29;;;;;;;12.98;9.85;;;;;;;13.94;30.66;101273.34;6277934;22;20372;-88
2022/03/15 11:03:59;;;;;;;11.77;9.55;;;;;;;14.53;30.36;101310.72;6276801;22;20033;-85
2022/03/15 11:06:39;;;;;;;10.35;8.60;;;;;;;14.51;29.92;101302.91;6277780;22;20456;-89
2022/03/15 11:09:27;;;;;;;10.73;9.32;;;;;;;14.63;28.57;101298.94;6275683;22;20006;-89
2022/03/15 11:12:05;;;;;;;13.52;11.05;;;;;;;14.10;29.45;101224.78;6277186;22;20003;-87
2022/03/15 11:14:41;;;;;;;10.30;8.65;;;;;;;14.36;29.05;101230.06;6277156;22;19999;-87
2022/03/15 11:17:15;;;;;;;10.85;9.10;;;;;;;14.68;28.49;101279.84;6275862;22;20061;-88
2022/03/15 11:19:53;;;;;;;10.60;9.50;;;;;;;14.76;28.89;101285.19;6276531;22;20081;-86
2022/03/15 11:22:36;;;;;;;14.38;10.55;;;;;;;14.88;27.84;101326.47;6276564;22;20018;-86
2022/03/15 11:25:07;;;;;;;9.18;7.72;;;;;;;14.85;28.48;101265.59;6275650;22;20004;-86
2022/03/15 11:27:37;;;;;;;11.85;8.35;;;;;;;14.22;28.34;101149.16;6275024;22;20045;-85
2022/03/15 11:30:06;;;;;;;11.50;9.27;;;;;;;14.61;28.13;101210.56;6276272;22;19999;-87
2022/03/15 11:32:35;;;;;;;10.50;8.45;;;;;;;14.93;28.41;101232.91;6304855;22;19999;-87
2022/03/15 11:35:03;;;;;;;10.30;9.20;;;;;;;15.10;28.04;101247.88;6278244;22;19995;-86
2022/03/15 11:37:30;;;;;;;11.23;8.93;;;;;;;15.12;27.79;101245.03;6278305;22;20070;-87
2022/03/15 11:39:58;;;;;;;10.57;8.38;;;;;;;14.62;27.29;101164.38;6278242;22;20009;-87
2022/03/15 11:42:26;;;;;;;10.98;8.73;;;;;;;14.53;27.12;101143.25;6277222;22;20003;-87
2022/03/15 11:45:10;;;;;;;11.05;8.95;;;;;;;15.32;27.25;101221.59;6276260;22;19999;-87
2022/03/15 11:47:54;;;;;;;6.88;6.00;;;;;;;15.09;26.37;101181.53;6278099;22;20457;-88
2022/03/15 11:50:52;;;;;;;10.57;7.63;;;;;;;15.36;25.40;101204.28;6277825;22;20002;-88
2022/03/15 11:53:33;;;;;;;9.75;7.20;;;;;;;15.33;26.14;101202.78;6277810;22;20031;-88
2022/03/15 11:56:07;;;;;;;6.72;5.68;;;;;;;15.05;26.30;101162.41;6278294;22;20022;-87
2022/03/15 11:58:33;;;;;;;10.93;6.95;;;;;;;13.53;26.33;100960.97;6305611;22;20055;-86
2022/03/15 12:01:12;;;;;;;7.88;6.40;;;;;;;14.96;26.21;101187.34;6305438;22;20041;-86
2022/03/15 12:03:51;;;;;;;7.97;6.72;;;;;;;14.36;26.17;101118.47;6277580;22;20084;-87
2022/03/15 12:06:25;;;;;;;9.95;8.20;;;;;;;14.51;26.75;101150.56;6277732;22;19999;-87
2022/03/15 12:08:57;;;;;;;9.55;7.05;;;;;;;14.23;26.72;101112.78;6305425;22;20052;-87
2022/03/15 12:11:42;;;;;;;6.70;6.00;;;;;;;14.28;26.94;101135.22;6305393;22;19995;-86
2022/03/15 12:14:17;;;;;;;8.70;6.03;;;;;;;13.68;26.93;101055.72;6277475;22;20003;-87
2022/03/15 12:16:47;;;;;;;7.70;6.90;;;;;;;14.29;27.13;101160.78;6278748;22;19999;-87
2022/03/15 12:19:35;;;;;;;6.78;5.40;;;;;;;14.20;26.64;101160.94;6278105;22;20010;-87
2022/03/15 12:22:06;;;;;;;9.52;7.35;;;;;;;13.66;27.00;101080.75;6278440;22;20364;-88
2022/03/15 12:24:45;;;;;;;13.77;11.70;;;;;;;13.97;27.63;101152.69;6279335;22;20009;-89
2022/03/15 12:27:19;;;;;;;11.80;7.38;;;;;;;13.90;26.21;101149.03;6278568;22;19999;-89
2022/03/15 12:29:58;;;;;;;5.93;5.03;;;;;;;13.83;26.70;101171.91;6306397;22;20049;-86
2022/03/15 12:32:25;;;;;;;7.30;5.25;;;;;;;13.85;26.23;101140.72;6306347;22;20064;-86
2022/03/15 12:34:55;;;;;;;6.10;5.15;;;;;;;13.57;26.77;101108.25;6306165;22;19999;-88
2022/03/15 12:37:33;;;;;;;6.28;5.32;;;;;;;13.70;25.98;101124.56;6279292;22;20003;-87
2022/03/15 12:40:01;;;;;;;8.05;6.15;;;;;;;13.80;26.52;101133.22;6306491;22;20101;-89
2022/03/15 12:42:27;;;;;;;9.10;5.60;;;;;;;13.49;26.05;101086.97;6278716;22;20013;-88
2022/03/15 12:45:12;;;;;;;6.15;4.85;;;;;;;13.36;25.77;101079.44;6278816;22;20000;-87
2022/03/15 12:47:43;;;;;;;9.20;6.55;;;;;;;13.10;26.10;101037.00;6276358;22;19999;-87
2022/03/15 12:50:12;;;;;;;9.32;7.22;;;;;;;13.65;26.63;101122.38;6276269;22;20006;-87
2022/03/15 12:52:51;;;;;;;7.05;4.68;;;;;;;13.52;26.17;101095.47;6304521;22;20074;-87
2022/03/15 12:55:34;;;;;;;9.95;7.75;;;;;;;12.87;25.92;100982.88;6276231;22;20003;-87
2022/03/15 12:58:03;;;;;;;8.13;5.68;;;;;;;13.64;26.19;101119.88;6275997;22;20073;-87
2022/03/15 13:00:34;;;;;;;10.35;6.97;;;;;;;12.93;25.99;101001.63;6278389;22;19999;-87
2022/03/15 13:03:01;;;;;;;8.07;6.13;;;;;;;12.95;26.06;101017.38;6278584;22;20027;-87
2022/03/15 13:05:28;;;;;;;9.50;7.38;;;;;;;13.54;26.24;101084.69;6306250;22;20053;-86
2022/03/15 13:08:02;;;;;;;10.27;7.88;;;;;;;13.34;26.53;101054.88;6306367;22;19995;-87
2022/03/15 13:10:38;;;;;;;17.35;11.70;;;;;;;13.50;26.47;101080.69;6278881;22;20418;-87
2022/03/15 13:13:07;;;;;;;10.65;9.07;;;;;;;13.26;26.38;101037.13;6305927;22;20037;-87
2022/03/15 13:15:34;;;;;;;9.57;6.40;;;;;;;13.47;26.31;101065.91;6305845;22;20003;-87
2022/03/15 13:17:59;;;;;;;9.05;6.53;;;;;;;12.98;26.37;100958.72;6279516;22;20006;-87
2022/03/15 13:20:34;;;;;;;9.35;5.75;;;;;;;13.74;25.22;101086.09;6306097;22;20015;-86
2022/03/15 13:23:03;;;;;;;8.05;6.55;;;;;;;13.29;26.40;100999.66;6278897;22;20364;-86
2022/03/15 13:25:49;;;;;;;6.95;5.95;;;;;;;13.78;25.80;101074.16;6278120;22;20003;-85
2022/03/15 13:28:25;;;;;;;11.20;6.78;;;;;;;13.74;25.99;101072.81;6305879;22;20070;-85
2022/03/15 13:30:57;;;;;;;8.75;6.22;;;;;;;13.14;26.73;100987.13;6277489;22;20007;-86
2022/03/15 13:33:29;;;;;;;8.70;6.63;;;;;;;13.80;26.31;101064.19;6277839;22;20456;-85
2022/03/15 13:36:05;;;;;;;6.95;4.82;;;;;;;13.49;25.72;101023.31;6304549;22;19998;-85
2022/03/15 13:38:34;;;;;;;9.75;7.25;;;;;;;13.83;25.65;101058.56;6277395;22;20029;-86
2022/03/15 13:41:00;;;;;;;7.68;5.68;;;;;;;13.34;25.58;100973.47;6304750;22;20010;-87
2022/03/15 13:43:29;;;;;;;6.75;5.88;;;;;;;13.91;25.96;101057.75;6278199;22;20034;-88
2022/03/15 13:45:55;;;;;;;8.43;6.80;;;;;;;12.91;26.15;100894.91;6299398;22;20007;-85
2022/03/15 13:48:29;;;;;;;7.07;5.28;;;;;;;14.10;26.45;101061.94;6331016;22;20006;-84
2022/03/15 13:51:24;;;;;;;8.00;7.05;;;;;;;14.19;26.33;101061.00;6320200;22;20042;-85
2022/03/15 13:53:53;;;;;;;8.85;6.80;;;;;;;13.74;26.75;100981.72;6303964;22;19995;-85
2022/03/15 13:56:21;;;;;;;6.90;6.03;;;;;;;13.58;26.90;100983.38;6278285;22;20002;-86
2022/03/15 13:58:59;;;;;;;9.80;7.90;;;;;;;14.24;26.85;101045.38;6278666;22;20003;-86
2022/03/15 14:01:32;;;;;;;10.85;9.38;;;;;;;13.85;26.69;100981.41;6277333;22;19995;-87
2022/03/15 14:04:04;;;;;;;13.73;11.20;;;;;;;13.67;26.87;100968.28;6307244;22;20007;-89
2022/03/15 14:06:37;;;;;;;12.57;8.23;;;;;;;14.15;26.83;101043.72;6279556;22;20035;-88
2022/03/15 14:09:04;;;;;;;14.10;9.88;;;;;;;14.06;26.79;101044.69;6278135;22;20414;-87
2022/03/15 14:11:40;;;;;;;13.27;9.95;;;;;;;13.60;26.38;100968.09;6278299;22;20033;-86
2022/03/15 14:14:09;;;;;;;11.55;7.97;;;;;;;13.57;26.69;100951.69;6305142;22;20436;-87
2022/03/15 14:16:41;;;;;;;10.95;7.70;;;;;;;13.64;26.53;100963.31;6277226;22;20088;-86
2022/03/15 14:19:09;;;;;;;9.23;7.93;;;;;;;14.19;26.67;101042.41;6304812;22;20011;-87
2022/03/15 14:21:41;;;;;;;9.35;7.28;;;;;;;14.15;26.47;101043.72;6305068;22;20091;-88
2022/03/15 14:24:07;;;;;;;8.07;6.47;;;;;;;12.99;26.82;100855.16;6277702;22;20064;-88
2022/03/15 14:26:33;;;;;;;7.55;6.70;;;;;;;13.46;26.45;100941.38;6277205;22;20034;-87
2022/03/15 14:29:09;;;;;;;8.52;6.65;;;;;;;13.61;26.30;100966.28;6276629;22;20359;-87
2022/03/15 14:31:40;;;;;;;9.48;7.70;;;;;;;13.16;26.78;100901.13;6277200;22;20003;-87
2022/03/15 14:34:09;;;;;;;9.18;7.25;;;;;;;13.50;26.66;100982.50;6277126;22;20521;-87
2022/03/15 14:36:36;;;;;;;10.27;7.65;;;;;;;13.22;26.61;100921.72;6277105;22;19991;-87
2022/03/15 14:39:12;;;;;;;9.10;7.90;;;;;;;13.76;26.58;101008.94;6304177;22;20003;-86
2022/03/15 14:41:39;;;;;;;8.50;6.88;;;;;;;13.84;26.62;101020.41;6304153;22;20453;-87
2022/03/15 14:44:07;;;;;;;8.82;7.32;;;;;;;13.11;26.77;100919.34;6304742;22;20129;-86
2022/03/15 14:46:36;;;;;;;7.82;6.65;;;;;;;13.15;26.65;100903.94;6277132;22;20065;-85
2022/03/15 14:49:02;;;;;;;10.80;8.90;;;;;;;13.06;26.47;100887.16;6304454;22;20003;-87
2022/03/15 14:51:28;;;;;;;12.63;9.60;;;;;;;13.21;26.80;100920.06;6276797;22;20027;-85
2022/03/15 14:53:55;;;;;;;17.67;14.02;;;;;;;13.67;26.32;100982.38;6304826;22;20397;-86
2022/03/15 14:56:21;;;;;;;9.55;7.88;;;;;;;14.00;26.35;101036.38;6304038;22;20006;-86
2022/03/15 14:58:47;;;;;;;11.15;8.13;;;;;;;13.90;26.10;100992.38;6303824;22;20022;-85
2022/03/15 15:01:12;;;;;;;10.63;9.10;;;;;;;13.91;26.22;100978.09;6277129;22;20003;-85
2022/03/15 15:03:38;;;;;;;10.77;8.38;;;;;;;13.82;26.13;100974.63;6277507;22;20068;-86
2022/03/15 15:06:04;;;;;;;10.77;7.75;;;;;;;13.87;26.43;100998.00;6305351;22;20330;-86
2022/03/15 15:08:30;;;;;;;12.93;10.05;;;;;;;13.97;26.93;101012.78;6278020;22;20054;-86
2022/03/15 15:10:57;;;;;;;13.10;11.23;;;;;;;13.27;26.71;100916.75;6278145;22;19999;-86
2022/03/15 15:13:25;;;;;;;14.32;10.30;;;;;;;13.25;26.87;100916.09;6277979;22;20072;-85
2022/03/15 15:15:51;;;;;;;19.10;14.20;;;;;;;13.72;26.89;101003.13;6304917;22;20021;-87
2022/03/15 15:18:19;;;;;;;17.27;13.48;;;;;;;13.63;27.29;101006.75;6277675;22;20437;-87
2022/03/15 15:20:46;;;;;;;16.63;13.15;;;;;;;13.56;27.48;101011.06;6304929;22;19995;-87
2022/03/15 15:23:13;;;;;;;19.67;11.88;;;;;;;12.06;27.71;100789.84;6305038;22;19999;-87
2022/03/15 15:25:41;;;;;;;14.98;10.75;;;;;;;12.90;27.70;100911.81;6305273;22;19999;-86
2022/03/15 15:28:11;;;;;;;14.32;10.60;;;;;;;13.04;27.74;100950.13;6305426;22;20006;-86
2022/03/15 15:30:36;;;;;;;12.35;9.93;;;;;;;12.85;27.63;100947.72;6278328;22;19999;-85
2022/03/15 15:33:02;;;;;;;13.95;10.43;;;;;;;12.55;28.35;100931.31;6278171;22;20356;-86
2022/03/15 15:35:29;;;;;;;19.35;14.23;;;;;;;12.33;28.15;100877.06;6277942;22;20026;-87
2022/03/15 15:37:58;;;;;;;21.10;13.73;;;;;;;13.03;28.67;101002.34;6305350;22;20060;-86
2022/03/15 15:40:24;;;;;;;16.10;10.70;;;;;;;13.00;28.73;100980.59;6277729;22;20007;-85
2022/03/15 15:42:53;;;;;;;11.88;8.57;;;;;;;12.43;28.91;100902.59;6277681;22;19996;-86
2022/03/15 15:45:21;;;;;;;11.30;8.50;;;;;;;12.12;28.59;100886.34;6277895;22;19999;-85
2022/03/15 15:47:47;;;;;;;12.00;8.25;;;;;;;12.78;28.21;100981.16;6305039;22;20081;-86
2022/03/15 15:50:13;;;;;;;11.50;7.82;;;;;;;12.19;28.74;100908.56;6277528;22;20073;-87
2022/03/15 15:52:46;;;;;;;11.77;8.52;;;;;;;12.25;28.53;100927.31;6304712;22;19999;-87
2022/03/15 15:55:12;;;;;;;16.10;9.60;;;;;;;11.76;29.04;100854.59;6305047;22;20019;-87
2022/03/15 15:57:37;;;;;;;16.17;12.38;;;;;;;11.24;28.92;100783.09;6277950;22;20349;-86
2022/03/15 16:00:08;;;;;;;25.58;16.98;;;;;;;11.76;29.33;100881.88;6305133;22;19999;-87
2022/03/15 16:02:37;;;;;;;29.13;19.40;;;;;;;12.36;29.00;100987.97;6304661;22;20015;-87
2022/03/15 16:05:07;;;;;;;35.35;26.10;;;;;;;12.31;29.42;100984.13;6277234;22;20003;-87
2022/03/15 16:07:39;;;;;;;28.42;22.27;;;;;;;11.49;29.66;100876.69;6276726;22;20014;-87
2022/03/15 16:10:09;;;;;;;33.97;21.65;;;;;;;12.16;29.77;100973.25;6277657;22;20010;-86
2022/03/15 16:12:35;;;;;;;31.33;20.27;;;;;;;11.55;29.59;100899.06;6277288;22;20066;-87
2022/03/15 16:15:01;;;;;;;34.67;22.77;;;;;;;11.36;30.19;100879.72;6304997;22;20025;-87
2022/03/15 16:17:27;;;;;;;36.38;24.70;;;;;;;11.31;30.30;100884.63;6278028;22;20457;-87
2022/03/15 16:19:53;;;;;;;34.40;22.83;;;;;;;11.23;30.64;100873.97;6278205;22;20078;-87
2022/03/15 16:22:19;;;;;;;38.28;26.55;;;;;;;10.88;30.73;100824.50;6278485;22;20027;-87
2022/03/15 16:24:45;;;;;;;41.33;28.08;;;;;;;11.22;30.91;100876.75;6277902;22;20055;-87
2022/03/15 16:27:11;;;;;;;43.60;28.02;;;;;;;11.76;30.93;101013.38;6305029;22;20360;-86
2022/03/15 16:29:37;;;;;;;48.55;31.38;;;;;;;11.29;31.41;100923.59;6277726;22;20407;-87
2022/03/15 16:32:03;;;;;;;55.63;36.67;;;;;;;10.76;31.88;100858.22;6305028;22;20034;-87
2022/03/15 16:34:29;;;;;;;67.53;45.13;;;;;;;10.99;31.97;100897.47;6304965;22;20031;-87
2022/03/15 16:36:54;;;;;;;65.13;43.05;;;;;;;11.48;32.67;100986.13;6304995;22;19988;-87
2022/03/15 16:39:21;;;;;;;69.65;43.63;;;;;;;11.38;32.62;100977.41;6277671;22;20069;-87
2022/03/15 16:41:48;;;;;;;68.95;44.72;;;;;;;11.17;32.37;100961.81;6276858;22;20000;-86
2022/03/15 16:44:13;;;;;;;76.90;51.58;;;;;;;11.23;33.24;100974.44;6276493;22;20013;-87
2022/03/15 16:46:39;;;;;;;77.53;51.40;;;;;;;10.54;33.52;100871.81;6304472;22;20030;-87
2022/03/15 16:49:05;;;;;;;88.53;52.03;;;;;;;10.44;33.33;100871.03;6305258;22;20018;-87
2022/03/15 16:51:30;;;;;;;92.30;57.80;;;;;;;10.91;33.65;100950.22;6277742;22;19999;-87
2022/03/15 16:53:55;;;;;;;96.13;55.70;;;;;;;10.65;34.16;100903.31;6277685;22;20003;-87
2022/03/15 16:56:21;;;;;;;99.03;62.10;;;;;;;10.88;33.89;100969.84;6277564;22;20070;-87
2022/03/15 17:01:31;;;;;;;96.53;62.95;;;;;;;10.38;34.24;100903.25;6305103;22;20011;-87
2022/03/15 17:06:41;;;;;;;113.22;74.53;;;;;;;10.40;34.21;100922.41;6306816;22;20144;-87
2022/03/15 17:09:07;;;;;;;106.40;69.10;;;;;;;10.40;34.37;100928.56;6279489;22;20436;-87
2022/03/15 17:11:32;;;;;;;113.70;75.65;;;;;;;10.32;34.64;100909.09;6279633;22;20328;-87
2022/03/15 17:13:58;;;;;;;109.22;71.53;;;;;;;10.04;34.37;100877.31;6279561;22;20360;-88
2022/03/15 17:16:23;;;;;;;112.75;77.85;;;;;;;9.81;34.89;100849.59;6279544;22;19987;-88
2022/03/15 17:18:54;;;;;;;132.75;84.88;;;;;;;9.17;35.43;100747.38;6279495;22;20385;-88
2022/03/15 17:21:21;;;;;;;149.57;96.55;;;;;;;9.71;35.13;100848.78;6279693;22;20322;-88
2022/03/15 17:23:47;;;;;;;144.75;92.85;;;;;;;9.42;35.14;100812.69;6279631;22;19999;-88
2022/03/15 17:26:19;;;;;;;127.90;89.28;;;;;;;10.02;35.56;100910.09;6279609;22;20072;-88
2022/03/15 17:28:45;;;;;;;100.43;70.28;;;;;;;10.34;35.12;100959.94;6307154;22;20074;-88
2022/03/15 17:31:14;;;;;;;85.57;59.88;;;;;;;9.72;35.25;100869.72;6306357;22;20006;-88
2022/03/15 17:33:41;;;;;;;104.15;70.13;;;;;;;9.92;35.56;100931.22;6279105;22;20521;-88
2022/03/15 17:36:09;;;;;;;98.00;66.88;;;;;;;9.40;35.17;100826.97;6279224;22;20001;-88
2022/03/15 17:38:34;;;;;;;99.65;63.03;;;;;;;9.87;35.61;100930.81;6279050;22;19999;-88
2022/03/15 17:41:00;;;;;;;100.65;66.63;;;;;;;10.04;35.95;100974.97;6306368;22;20056;-88
2022/03/15 17:43:26;;;;;;;100.45;64.97;;;;;;;9.34;36.37;100862.63;6306393;22;20000;-88
2022/03/15 17:45:54;;;;;;;100.93;66.70;;;;;;;9.81;36.22;100936.63;6279335;22;20349;-88
2022/03/15 17:48:20;;;;;;;107.30;63.47;;;;;;;9.72;36.62;100948.03;6279183;22;20006;-88
2022/03/15 17:50:49;;;;;;;102.82;64.40;;;;;;;9.80;36.50;100962.19;6306037;22;20334;-88
2022/03/15 17:53:20;;;;;;;95.55;62.75;;;;;;;9.19;36.79;100879.81;6278973;22;20013;-87
2022/03/15 17:55:47;;;;;;;96.15;61.70;;;;;;;9.18;37.12;100864.97;6278799;22;20003;-88
2022/03/15 17:58:15;;;;;;;99.20;62.15;;;;;;;9.65;37.28;100962.69;6278802;22;20322;-88
2022/03/15 18:00:40;;;;;;;97.88;59.95;;;;;;;8.64;37.55;100813.53;6278650;22;20002;-88
2022/03/15 18:03:09;;;;;;;96.22;59.38;;;;;;;9.18;37.65;100894.78;6278557;22;20012;-88
2022/03/15 18:05:35;;;;;;;104.63;60.10;;;;;;;8.55;38.12;100809.91;6279213;22;20009;-88
2022/03/15 18:08:02;;;;;;;105.72;62.97;;;;;;;8.68;38.08;100817.56;6306186;22;20070;-88
2022/03/15 18:10:46;;;;;;;97.82;54.70;;;;;;;9.41;37.90;100958.66;6306275;22;20003;-88
2022/03/15 18:13:14;;;;;;;90.30;54.70;;;;;;;9.34;38.09;100946.13;6305885;22;19999;-88
2022/03/15 18:15:40;;;;;;;71.07;43.90;;;;;;;8.94;38.13;100877.69;6284003;22;20057;-88
2022/03/15 18:18:09;;;;;;;63.67;42.38;;;;;;;8.68;37.82;100861.50;6319528;22;20019;-88
2022/03/15 18:20:48;;;;;;;61.63;40.88;;;;;;;9.35;37.60;100964.47;6291184;22;20091;-87
2022/03/15 18:23:15;;;;;;;55.78;40.22;;;;;;;9.14;37.60;100932.91;6282663;22;20003;-88
2022/03/15 18:25:42;;;;;;;65.82;42.25;;;;;;;8.89;37.53;100901.75;6306187;22;19995;-88
2022/03/15 18:28:10;;;;;;;93.43;59.50;;;;;;;8.54;37.87;100867.97;6278979;22;20018;-89
2022/03/15 18:30:37;;;;;;;94.47;62.92;;;;;;;9.25;37.63;100976.78;6278938;22;20127;-89
2022/03/15 18:33:06;;;;;;;88.80;57.70;;;;;;;8.52;37.88;100862.84;6278584;22;20007;-87
2022/03/15 18:35:39;;;;;;;86.13;60.05;;;;;;;8.18;37.92;100821.94;6278735;22;20002;-88
2022/03/15 18:38:05;;;;;;;83.47;57.22;;;;;;;9.06;37.62;100981.97;6306089;22;20501;-88
2022/03/15 18:40:35;;;;;;;96.30;61.67;;;;;;;9.13;38.16;100973.41;6278800;22;20053;-89
2022/03/15 18:43:12;;;;;;;85.45;55.90;;;;;;;9.08;38.16;100970.34;6278616;22;20407;-88
2022/03/15 18:45:43;;;;;;;75.65;46.08;;;;;;;9.06;38.46;100955.63;6306300;22;20014;-88
2022/03/15 18:48:15;;;;;;;78.47;47.03;;;;;;;8.68;38.53;100903.63;6308892;22;20051;-87
2022/03/15 18:50:44;;;;;;;69.63;42.55;;;;;;;8.09;38.43;100820.06;6308333;22;19990;-88
2022/03/15 18:53:12;;;;;;;68.05;41.20;;;;;;;8.14;38.72;100821.31;6329741;22;20513;-88
2022/03/15 18:55:38;;;;;;;66.90;41.97;;;;;;;8.65;38.91;100938.13;6278391;22;19996;-87
2022/03/15 18:58:04;;;;;;;67.68;41.35;;;;;;;8.71;38.59;100917.34;6278259;22;19999;-88